sensor_id;sensor_type;location;lat;lon;timestamp;P1;durP1;ratioP1;P2;durP2;ratioP2
5704;SDS011;2877;48.238;11.160;2023-02-18T00:01:20;11.57;;;2.80;;
5704;SDS011;2877;48.238;11.160;2023-02-18T00:03:48;3.70;;;2.20;;
5704;SDS011;2877;48.238;11.160;2023-02-18T00:06:14;3.00;;;2.40;;
5704;SDS011;2877;48.238;11.160;2023-02-18T00:08:42;2.60;;;2.13;;
5704;SDS011;2877;48.238;11.160;2023-02-18T00:11:09;3.30;;;2.70;;
5704;SDS011;2877;48.238;11.160;2023-02-18T00:13:36;4.20;;;2.13;;
5704;SDS011;2877;48.238;11.160;2023-02-18T00:16:02;5.77;;;2.47;;
5704;SDS011;2877;48.238;11.160;2023-02-18T00:18:35;2.70;;;2.50;;
5704;SDS011;2877;48.238;11.160;2023-02-18T00:21:04;2.27;;;2.10;;
5704;SDS011;2877;48.238;11.160;2023-02-18T00:23:31;4.37;;;2.20;;
5704;SDS011;2877;48.238;11.160;2023-02-18T00:26:15;2.57;;;2.17;;
5704;SDS011;2877;48.238;11.160;2023-02-18T00:28:42;4.40;;;2.70;;
5704;SDS011;2877;48.238;11.160;2023-02-18T00:31:12;3.00;;;2.40;;
5704;SDS011;2877;48.238;11.160;2023-02-18T00:33:42;3.17;;;2.40;;
5704;SDS011;2877;48.238;11.160;2023-02-18T00:36:09;2.60;;;2.40;;
5704;SDS011;2877;48.238;11.160;2023-02-18T00:38:37;2.53;;;2.30;;
5704;SDS011;2877;48.238;11.160;2023-02-18T00:41:03;3.70;;;2.40;;
5704;SDS011;2877;48.238;11.160;2023-02-18T00:43:29;2.83;;;2.63;;
5704;SDS011;2877;48.238;11.160;2023-02-18T00:45:55;2.07;;;1.97;;
5704;SDS011;2877;48.238;11.160;2023-02-18T00:48:20;3.13;;;2.13;;
5704;SDS011;2877;48.238;11.160;2023-02-18T00:50:46;4.60;;;2.67;;
5704;SDS011;2877;48.238;11.160;2023-02-18T00:53:12;4.37;;;2.67;;
5704;SDS011;2877;48.238;11.160;2023-02-18T00:55:41;2.80;;;2.10;;
5704;SDS011;2877;48.238;11.160;2023-02-18T00:58:08;2.30;;;2.10;;
5704;SDS011;2877;48.238;11.160;2023-02-18T01:00:34;3.27;;;2.60;;
5704;SDS011;2877;48.238;11.160;2023-02-18T01:02:59;2.30;;;2.10;;
5704;SDS011;2877;48.238;11.160;2023-02-18T01:05:28;2.57;;;2.37;;
5704;SDS011;2877;48.238;11.160;2023-02-18T01:07:53;3.20;;;2.20;;
5704;SDS011;2877;48.238;11.160;2023-02-18T01:10:19;2.33;;;2.13;;
5704;SDS011;2877;48.238;11.160;2023-02-18T01:12:44;3.40;;;2.40;;
5704;SDS011;2877;48.238;11.160;2023-02-18T01:15:10;7.27;;;2.33;;
5704;SDS011;2877;48.238;11.160;2023-02-18T01:17:38;2.40;;;2.20;;
5704;SDS011;2877;48.238;11.160;2023-02-18T01:20:04;2.70;;;2.27;;
5704;SDS011;2877;48.238;11.160;2023-02-18T01:22:31;3.20;;;2.50;;
5704;SDS011;2877;48.238;11.160;2023-02-18T01:24:56;2.80;;;2.37;;
5704;SDS011;2877;48.238;11.160;2023-02-18T01:27:22;2.50;;;2.20;;
5704;SDS011;2877;48.238;11.160;2023-02-18T01:29:47;2.00;;;1.83;;
5704;SDS011;2877;48.238;11.160;2023-02-18T01:32:13;2.50;;;1.90;;
5704;SDS011;2877;48.238;11.160;2023-02-18T01:34:38;2.67;;;1.77;;
5704;SDS011;2877;48.238;11.160;2023-02-18T01:37:04;1.70;;;1.60;;
5704;SDS011;2877;48.238;11.160;2023-02-18T01:39:30;2.53;;;2.07;;
5704;SDS011;2877;48.238;11.160;2023-02-18T01:41:55;2.70;;;2.20;;
5704;SDS011;2877;48.238;11.160;2023-02-18T01:44:22;5.20;;;3.30;;
5704;SDS011;2877;48.238;11.160;2023-02-18T01:46:50;4.17;;;2.30;;
5704;SDS011;2877;48.238;11.160;2023-02-18T01:49:17;4.83;;;2.40;;
5704;SDS011;2877;48.238;11.160;2023-02-18T01:51:49;2.43;;;2.27;;
5704;SDS011;2877;48.238;11.160;2023-02-18T01:54:20;3.77;;;2.43;;
5704;SDS011;2877;48.238;11.160;2023-02-18T01:57:03;2.93;;;2.43;;
5704;SDS011;2877;48.238;11.160;2023-02-18T01:59:39;2.87;;;2.20;;
5704;SDS011;2877;48.238;11.160;2023-02-18T02:02:17;2.90;;;2.70;;
5704;SDS011;2877;48.238;11.160;2023-02-18T02:04:46;2.70;;;2.40;;
5704;SDS011;2877;48.238;11.160;2023-02-18T02:07:12;3.90;;;2.70;;
5704;SDS011;2877;48.238;11.160;2023-02-18T02:09:38;3.13;;;2.83;;
5704;SDS011;2877;48.238;11.160;2023-02-18T02:12:10;4.80;;;3.00;;
5704;SDS011;2877;48.238;11.160;2023-02-18T02:15:08;3.27;;;2.77;;
5704;SDS011;2877;48.238;11.160;2023-02-18T02:23:40;2.77;;;2.47;;
5704;SDS011;2877;48.238;11.160;2023-02-18T02:52:23;5.37;;;2.50;;
5704;SDS011;2877;48.238;11.160;2023-02-18T02:54:52;2.90;;;2.57;;
5704;SDS011;2877;48.238;11.160;2023-02-18T02:59:48;7.70;;;3.20;;
5704;SDS011;2877;48.238;11.160;2023-02-18T03:02:24;5.20;;;3.03;;
5704;SDS011;2877;48.238;11.160;2023-02-18T03:05:38;3.23;;;2.40;;
5704;SDS011;2877;48.238;11.160;2023-02-18T03:11:08;3.57;;;2.40;;
5704;SDS011;2877;48.238;11.160;2023-02-18T03:18:59;5.93;;;2.70;;
5704;SDS011;2877;48.238;11.160;2023-02-18T03:24:23;3.37;;;2.70;;
5704;SDS011;2877;48.238;11.160;2023-02-18T03:26:55;2.90;;;2.70;;
5704;SDS011;2877;48.238;11.160;2023-02-18T03:29:42;2.47;;;2.27;;
5704;SDS011;2877;48.238;11.160;2023-02-18T03:32:11;4.00;;;2.37;;
5704;SDS011;2877;48.238;11.160;2023-02-18T03:34:40;2.50;;;2.30;;
5704;SDS011;2877;48.238;11.160;2023-02-18T03:37:09;3.37;;;3.00;;
5704;SDS011;2877;48.238;11.160;2023-02-18T03:39:38;4.67;;;2.63;;
5704;SDS011;2877;48.238;11.160;2023-02-18T03:42:07;3.30;;;3.00;;
5704;SDS011;2877;48.238;11.160;2023-02-18T03:44:32;3.10;;;2.80;;
5704;SDS011;2877;48.238;11.160;2023-02-18T03:46:58;4.03;;;2.70;;
5704;SDS011;2877;48.238;11.160;2023-02-18T03:49:23;3.00;;;2.70;;
5704;SDS011;2877;48.238;11.160;2023-02-18T03:51:51;3.23;;;2.70;;
5704;SDS011;2877;48.238;11.160;2023-02-18T03:54:17;2.87;;;2.67;;
5704;SDS011;2877;48.238;11.160;2023-02-18T03:56:42;2.50;;;2.30;;
5704;SDS011;2877;48.238;11.160;2023-02-18T03:59:08;2.73;;;2.53;;
5704;SDS011;2877;48.238;11.160;2023-02-18T04:01:35;2.47;;;2.37;;
5704;SDS011;2877;48.238;11.160;2023-02-18T04:04:03;2.57;;;2.37;;
5704;SDS011;2877;48.238;11.160;2023-02-18T04:06:29;3.90;;;2.30;;
5704;SDS011;2877;48.238;11.160;2023-02-18T04:08:55;2.33;;;2.20;;
5704;SDS011;2877;48.238;11.160;2023-02-18T04:11:20;2.00;;;1.83;;
5704;SDS011;2877;48.238;11.160;2023-02-18T04:13:46;2.20;;;2.00;;
5704;SDS011;2877;48.238;11.160;2023-02-18T04:16:12;2.80;;;1.93;;
5704;SDS011;2877;48.238;11.160;2023-02-18T04:18:38;1.90;;;1.80;;
5704;SDS011;2877;48.238;11.160;2023-02-18T04:21:03;3.10;;;1.63;;
5704;SDS011;2877;48.238;11.160;2023-02-18T04:23:29;2.17;;;2.07;;
5704;SDS011;2877;48.238;11.160;2023-02-18T04:25:55;2.63;;;1.60;;
5704;SDS011;2877;48.238;11.160;2023-02-18T04:28:20;1.83;;;1.73;;
5704;SDS011;2877;48.238;11.160;2023-02-18T04:30:46;1.70;;;1.60;;
5704;SDS011;2877;48.238;11.160;2023-02-18T04:33:12;1.50;;;1.40;;
5704;SDS011;2877;48.238;11.160;2023-02-18T04:35:38;1.83;;;1.73;;
5704;SDS011;2877;48.238;11.160;2023-02-18T04:38:07;1.93;;;1.80;;
5704;SDS011;2877;48.238;11.160;2023-02-18T04:40:34;1.60;;;1.60;;
5704;SDS011;2877;48.238;11.160;2023-02-18T04:42:59;1.37;;;1.30;;
5704;SDS011;2877;48.238;11.160;2023-02-18T04:45:26;2.13;;;1.80;;
5704;SDS011;2877;48.238;11.160;2023-02-18T04:47:52;1.70;;;1.60;;
5704;SDS011;2877;48.238;11.160;2023-02-18T04:50:19;1.80;;;1.70;;
5704;SDS011;2877;48.238;11.160;2023-02-18T04:52:45;1.60;;;1.50;;
5704;SDS011;2877;48.238;11.160;2023-02-18T04:55:11;1.87;;;1.77;;
5704;SDS011;2877;48.238;11.160;2023-02-18T04:57:36;1.57;;;1.47;;
5704;SDS011;2877;48.238;11.160;2023-02-18T05:00:05;1.10;;;1.10;;
5704;SDS011;2877;48.238;11.160;2023-02-18T05:02:32;1.40;;;1.30;;
5704;SDS011;2877;48.238;11.160;2023-02-18T05:04:58;1.30;;;1.20;;
5704;SDS011;2877;48.238;11.160;2023-02-18T05:07:24;1.43;;;1.40;;
5704;SDS011;2877;48.238;11.160;2023-02-18T05:09:49;1.60;;;1.50;;
5704;SDS011;2877;48.238;11.160;2023-02-18T05:12:15;1.90;;;1.47;;
5704;SDS011;2877;48.238;11.160;2023-02-18T05:14:40;1.57;;;1.50;;
5704;SDS011;2877;48.238;11.160;2023-02-18T05:17:06;1.60;;;1.50;;
5704;SDS011;2877;48.238;11.160;2023-02-18T05:19:32;1.70;;;1.60;;
5704;SDS011;2877;48.238;11.160;2023-02-18T05:21:57;1.87;;;1.77;;
5704;SDS011;2877;48.238;11.160;2023-02-18T05:24:23;1.47;;;1.37;;
5704;SDS011;2877;48.238;11.160;2023-02-18T05:26:48;2.23;;;1.70;;
5704;SDS011;2877;48.238;11.160;2023-02-18T05:29:14;1.83;;;1.73;;
5704;SDS011;2877;48.238;11.160;2023-02-18T05:31:39;1.43;;;1.33;;
5704;SDS011;2877;48.238;11.160;2023-02-18T05:34:05;1.40;;;1.30;;
5704;SDS011;2877;48.238;11.160;2023-02-18T05:36:31;1.70;;;1.60;;
5704;SDS011;2877;48.238;11.160;2023-02-18T05:38:56;2.20;;;1.50;;
5704;SDS011;2877;48.238;11.160;2023-02-18T05:41:22;1.10;;;1.10;;
5704;SDS011;2877;48.238;11.160;2023-02-18T05:43:49;2.73;;;1.13;;
5704;SDS011;2877;48.238;11.160;2023-02-18T05:46:33;1.40;;;1.30;;
5704;SDS011;2877;48.238;11.160;2023-02-18T05:48:59;1.73;;;1.40;;
5704;SDS011;2877;48.238;11.160;2023-02-18T05:51:25;1.33;;;1.33;;
5704;SDS011;2877;48.238;11.160;2023-02-18T05:53:50;1.53;;;1.43;;
5704;SDS011;2877;48.238;11.160;2023-02-18T05:56:16;1.90;;;1.30;;
5704;SDS011;2877;48.238;11.160;2023-02-18T05:58:41;1.20;;;1.20;;
5704;SDS011;2877;48.238;11.160;2023-02-18T06:01:07;1.40;;;1.30;;
5704;SDS011;2877;48.238;11.160;2023-02-18T06:03:32;1.50;;;1.40;;
5704;SDS011;2877;48.238;11.160;2023-02-18T06:05:58;1.90;;;1.20;;
5704;SDS011;2877;48.238;11.160;2023-02-18T06:08:23;0.97;;;0.97;;
5704;SDS011;2877;48.238;11.160;2023-02-18T06:10:49;1.13;;;1.03;;
5704;SDS011;2877;48.238;11.160;2023-02-18T06:13:17;1.10;;;1.10;;
5704;SDS011;2877;48.238;11.160;2023-02-18T06:15:42;1.90;;;1.10;;
5704;SDS011;2877;48.238;11.160;2023-02-18T06:18:08;1.60;;;1.50;;
5704;SDS011;2877;48.238;11.160;2023-02-18T06:20:34;2.00;;;1.23;;
5704;SDS011;2877;48.238;11.160;2023-02-18T06:22:59;1.00;;;1.00;;
5704;SDS011;2877;48.238;11.160;2023-02-18T06:25:25;1.70;;;1.30;;
5704;SDS011;2877;48.238;11.160;2023-02-18T06:27:50;1.20;;;1.20;;
5704;SDS011;2877;48.238;11.160;2023-02-18T06:30:16;1.10;;;1.10;;
5704;SDS011;2877;48.238;11.160;2023-02-18T06:32:45;1.40;;;1.30;;
5704;SDS011;2877;48.238;11.160;2023-02-18T06:35:11;1.20;;;1.20;;
5704;SDS011;2877;48.238;11.160;2023-02-18T06:37:37;1.27;;;1.27;;
5704;SDS011;2877;48.238;11.160;2023-02-18T06:40:05;1.07;;;1.03;;
5704;SDS011;2877;48.238;11.160;2023-02-18T06:42:31;0.90;;;0.90;;
5704;SDS011;2877;48.238;11.160;2023-02-18T06:44:56;0.90;;;0.90;;
5704;SDS011;2877;48.238;11.160;2023-02-18T06:47:22;1.03;;;1.03;;
5704;SDS011;2877;48.238;11.160;2023-02-18T06:49:47;1.33;;;1.23;;
5704;SDS011;2877;48.238;11.160;2023-02-18T06:52:13;1.90;;;1.40;;
5704;SDS011;2877;48.238;11.160;2023-02-18T06:54:38;1.10;;;1.10;;
5704;SDS011;2877;48.238;11.160;2023-02-18T06:57:04;1.23;;;1.23;;
5704;SDS011;2877;48.238;11.160;2023-02-18T06:59:29;1.00;;;1.00;;
5704;SDS011;2877;48.238;11.160;2023-02-18T07:01:55;0.90;;;0.90;;
5704;SDS011;2877;48.238;11.160;2023-02-18T07:04:20;1.07;;;0.97;;
5704;SDS011;2877;48.238;11.160;2023-02-18T07:06:46;1.00;;;1.00;;
5704;SDS011;2877;48.238;11.160;2023-02-18T07:09:12;1.10;;;1.10;;
5704;SDS011;2877;48.238;11.160;2023-02-18T07:11:37;1.00;;;1.00;;
5704;SDS011;2877;48.238;11.160;2023-02-18T07:14:03;0.93;;;0.93;;
5704;SDS011;2877;48.238;11.160;2023-02-18T07:16:28;0.70;;;0.70;;
5704;SDS011;2877;48.238;11.160;2023-02-18T07:18:54;0.70;;;0.70;;
5704;SDS011;2877;48.238;11.160;2023-02-18T07:21:20;0.80;;;0.80;;
5704;SDS011;2877;48.238;11.160;2023-02-18T07:23:45;0.87;;;0.87;;
5704;SDS011;2877;48.238;11.160;2023-02-18T07:26:11;1.50;;;0.93;;
5704;SDS011;2877;48.238;11.160;2023-02-18T07:28:38;3.10;;;0.80;;
5704;SDS011;2877;48.238;11.160;2023-02-18T07:31:04;0.80;;;0.80;;
5704;SDS011;2877;48.238;11.160;2023-02-18T07:33:29;1.00;;;1.00;;
5704;SDS011;2877;48.238;11.160;2023-02-18T07:35:59;1.10;;;1.10;;
5704;SDS011;2877;48.238;11.160;2023-02-18T07:38:25;0.90;;;0.90;;
5704;SDS011;2877;48.238;11.160;2023-02-18T07:40:52;0.70;;;0.70;;
5704;SDS011;2877;48.238;11.160;2023-02-18T07:43:18;0.97;;;0.87;;
5704;SDS011;2877;48.238;11.160;2023-02-18T07:45:44;1.10;;;1.00;;
5704;SDS011;2877;48.238;11.160;2023-02-18T07:48:10;1.17;;;0.70;;
5704;SDS011;2877;48.238;11.160;2023-02-18T07:50:39;1.00;;;0.93;;
5704;SDS011;2877;48.238;11.160;2023-02-18T07:53:06;0.90;;;0.70;;
5704;SDS011;2877;48.238;11.160;2023-02-18T07:55:32;0.80;;;0.70;;
5704;SDS011;2877;48.238;11.160;2023-02-18T07:58:26;1.07;;;0.80;;
5704;SDS011;2877;48.238;11.160;2023-02-18T08:00:53;0.77;;;0.77;;
5704;SDS011;2877;48.238;11.160;2023-02-18T08:03:20;0.60;;;0.60;;
5704;SDS011;2877;48.238;11.160;2023-02-18T08:05:47;0.70;;;0.40;;
5704;SDS011;2877;48.238;11.160;2023-02-18T08:08:14;1.13;;;1.00;;
5704;SDS011;2877;48.238;11.160;2023-02-18T08:10:41;1.33;;;0.60;;
5704;SDS011;2877;48.238;11.160;2023-02-18T08:13:07;1.27;;;1.17;;
5704;SDS011;2877;48.238;11.160;2023-02-18T08:15:33;0.60;;;0.60;;
5704;SDS011;2877;48.238;11.160;2023-02-18T08:17:59;0.80;;;0.80;;
5704;SDS011;2877;48.238;11.160;2023-02-18T08:20:25;0.60;;;0.60;;
5704;SDS011;2877;48.238;11.160;2023-02-18T08:22:51;1.50;;;0.70;;
5704;SDS011;2877;48.238;11.160;2023-02-18T08:25:16;0.60;;;0.60;;
5704;SDS011;2877;48.238;11.160;2023-02-18T08:27:42;0.90;;;0.90;;
5704;SDS011;2877;48.238;11.160;2023-02-18T08:30:08;0.77;;;0.60;;
5704;SDS011;2877;48.238;11.160;2023-02-18T08:32:34;0.67;;;0.67;;
5704;SDS011;2877;48.238;11.160;2023-02-18T08:35:00;0.50;;;0.50;;
5704;SDS011;2877;48.238;11.160;2023-02-18T08:37:25;0.83;;;0.50;;
5704;SDS011;2877;48.238;11.160;2023-02-18T08:39:51;0.53;;;0.53;;
5704;SDS011;2877;48.238;11.160;2023-02-18T08:42:17;0.47;;;0.47;;
5704;SDS011;2877;48.238;11.160;2023-02-18T08:44:42;0.50;;;0.50;;
5704;SDS011;2877;48.238;11.160;2023-02-18T08:47:08;0.60;;;0.60;;
5704;SDS011;2877;48.238;11.160;2023-02-18T08:49:33;0.57;;;0.57;;
5704;SDS011;2877;48.238;11.160;2023-02-18T08:52:00;0.50;;;0.50;;
5704;SDS011;2877;48.238;11.160;2023-02-18T08:54:27;0.80;;;0.80;;
5704;SDS011;2877;48.238;11.160;2023-02-18T08:56:53;0.50;;;0.50;;
5704;SDS011;2877;48.238;11.160;2023-02-18T08:59:19;0.60;;;0.60;;
5704;SDS011;2877;48.238;11.160;2023-02-18T09:01:45;0.80;;;0.80;;
5704;SDS011;2877;48.238;11.160;2023-02-18T09:04:10;0.83;;;0.83;;
5704;SDS011;2877;48.238;11.160;2023-02-18T09:06:37;0.50;;;0.50;;
5704;SDS011;2877;48.238;11.160;2023-02-18T09:09:03;0.83;;;0.70;;
5704;SDS011;2877;48.238;11.160;2023-02-18T09:11:28;0.67;;;0.63;;
5704;SDS011;2877;48.238;11.160;2023-02-18T09:13:54;4.37;;;0.60;;
5704;SDS011;2877;48.238;11.160;2023-02-18T09:16:20;0.67;;;0.67;;
5704;SDS011;2877;48.238;11.160;2023-02-18T09:18:46;2.13;;;0.60;;
5704;SDS011;2877;48.238;11.160;2023-02-18T09:21:13;0.70;;;0.70;;
5704;SDS011;2877;48.238;11.160;2023-02-18T09:23:40;0.50;;;0.50;;
5704;SDS011;2877;48.238;11.160;2023-02-18T09:26:07;0.53;;;0.53;;
5704;SDS011;2877;48.238;11.160;2023-02-18T09:28:35;0.70;;;0.70;;
5704;SDS011;2877;48.238;11.160;2023-02-18T09:31:13;0.60;;;0.60;;
5704;SDS011;2877;48.238;11.160;2023-02-18T09:33:42;1.03;;;0.70;;
5704;SDS011;2877;48.238;11.160;2023-02-18T09:36:18;0.60;;;0.60;;
5704;SDS011;2877;48.238;11.160;2023-02-18T09:38:44;0.73;;;0.73;;
5704;SDS011;2877;48.238;11.160;2023-02-18T09:41:16;0.57;;;0.50;;
5704;SDS011;2877;48.238;11.160;2023-02-18T09:43:58;0.60;;;0.60;;
5704;SDS011;2877;48.238;11.160;2023-02-18T09:49:27;0.50;;;0.50;;
5704;SDS011;2877;48.238;11.160;2023-02-18T09:52:02;1.27;;;0.70;;
5704;SDS011;2877;48.238;11.160;2023-02-18T09:54:38;0.73;;;0.73;;
5704;SDS011;2877;48.238;11.160;2023-02-18T09:57:05;0.70;;;0.70;;
5704;SDS011;2877;48.238;11.160;2023-02-18T09:59:39;1.37;;;0.87;;
5704;SDS011;2877;48.238;11.160;2023-02-18T10:02:08;0.80;;;0.80;;
5704;SDS011;2877;48.238;11.160;2023-02-18T10:04:41;1.13;;;0.90;;
5704;SDS011;2877;48.238;11.160;2023-02-18T10:07:18;1.00;;;1.00;;
5704;SDS011;2877;48.238;11.160;2023-02-18T10:09:49;1.37;;;0.93;;
5704;SDS011;2877;48.238;11.160;2023-02-18T10:12:20;1.10;;;1.00;;
5704;SDS011;2877;48.238;11.160;2023-02-18T10:14:49;0.73;;;0.73;;
5704;SDS011;2877;48.238;11.160;2023-02-18T10:17:16;0.60;;;0.60;;
5704;SDS011;2877;48.238;11.160;2023-02-18T10:19:43;1.20;;;1.10;;
5704;SDS011;2877;48.238;11.160;2023-02-18T10:22:11;0.57;;;0.57;;
5704;SDS011;2877;48.238;11.160;2023-02-18T10:24:39;0.60;;;0.60;;
5704;SDS011;2877;48.238;11.160;2023-02-18T10:27:10;0.87;;;0.87;;
5704;SDS011;2877;48.238;11.160;2023-02-18T10:29:51;1.10;;;1.00;;
5704;SDS011;2877;48.238;11.160;2023-02-18T10:32:23;0.83;;;0.83;;
5704;SDS011;2877;48.238;11.160;2023-02-18T10:50:39;1.80;;;1.17;;
5704;SDS011;2877;48.238;11.160;2023-02-18T10:53:51;0.70;;;0.70;;
5704;SDS011;2877;48.238;11.160;2023-02-18T10:56:01;1.10;;;1.00;;
5704;SDS011;2877;48.238;11.160;2023-02-18T11:01:00;0.70;;;0.70;;
5704;SDS011;2877;48.238;11.160;2023-02-18T11:03:39;1.77;;;1.13;;
5704;SDS011;2877;48.238;11.160;2023-02-18T11:06:18;0.67;;;0.67;;
5704;SDS011;2877;48.238;11.160;2023-02-18T11:08:53;0.60;;;0.60;;
5704;SDS011;2877;48.238;11.160;2023-02-18T11:13:54;1.33;;;0.87;;
5704;SDS011;2877;48.238;11.160;2023-02-18T11:16:22;1.03;;;0.90;;
5704;SDS011;2877;48.238;11.160;2023-02-18T11:18:59;0.97;;;0.67;;
5704;SDS011;2877;48.238;11.160;2023-02-18T11:21:34;0.80;;;0.80;;
5704;SDS011;2877;48.238;11.160;2023-02-18T11:24:09;0.73;;;0.67;;
5704;SDS011;2877;48.238;11.160;2023-02-18T11:26:40;0.60;;;0.60;;
5704;SDS011;2877;48.238;11.160;2023-02-18T11:29:19;1.00;;;0.70;;
5704;SDS011;2877;48.238;11.160;2023-02-18T11:31:47;0.70;;;0.70;;
5704;SDS011;2877;48.238;11.160;2023-02-18T11:34:16;0.80;;;0.70;;
5704;SDS011;2877;48.238;11.160;2023-02-18T11:36:45;0.80;;;0.80;;
5704;SDS011;2877;48.238;11.160;2023-02-18T11:39:22;1.07;;;0.77;;
5704;SDS011;2877;48.238;11.160;2023-02-18T11:41:54;2.30;;;0.60;;
5704;SDS011;2877;48.238;11.160;2023-02-18T11:44:30;0.80;;;0.80;;
5704;SDS011;2877;48.238;11.160;2023-02-18T11:49:29;0.70;;;0.70;;
5704;SDS011;2877;48.238;11.160;2023-02-18T11:52:02;1.90;;;0.80;;
5704;SDS011;2877;48.238;11.160;2023-02-18T11:54:30;0.73;;;0.70;;
5704;SDS011;2877;48.238;11.160;2023-02-18T11:59:26;0.50;;;0.50;;
5704;SDS011;2877;48.238;11.160;2023-02-18T12:04:27;0.70;;;0.70;;
5704;SDS011;2877;48.238;11.160;2023-02-18T12:09:34;0.60;;;0.60;;
5704;SDS011;2877;48.238;11.160;2023-02-18T12:12:02;0.67;;;0.67;;
5704;SDS011;2877;48.238;11.160;2023-02-18T12:14:42;0.77;;;0.63;;
5704;SDS011;2877;48.238;11.160;2023-02-18T12:25:01;0.60;;;0.60;;
5704;SDS011;2877;48.238;11.160;2023-02-18T12:27:49;0.70;;;0.70;;
5704;SDS011;2877;48.238;11.160;2023-02-18T12:36:12;0.60;;;0.60;;
5704;SDS011;2877;48.238;11.160;2023-02-18T12:38:57;1.03;;;0.60;;
5704;SDS011;2877;48.238;11.160;2023-02-18T12:47:12;0.70;;;0.70;;
5704;SDS011;2877;48.238;11.160;2023-02-18T13:06:32;1.37;;;0.90;;
5704;SDS011;2877;48.238;11.160;2023-02-18T13:08:58;2.53;;;1.00;;
5704;SDS011;2877;48.238;11.160;2023-02-18T13:14:22;0.70;;;0.70;;
5704;SDS011;2877;48.238;11.160;2023-02-18T13:16:55;0.80;;;0.80;;
5704;SDS011;2877;48.238;11.160;2023-02-18T13:19:44;0.67;;;0.67;;
5704;SDS011;2877;48.238;11.160;2023-02-18T13:22:17;2.60;;;1.10;;
5704;SDS011;2877;48.238;11.160;2023-02-18T13:24:47;0.83;;;0.83;;
5704;SDS011;2877;48.238;11.160;2023-02-18T13:32:50;1.60;;;0.70;;
5704;SDS011;2877;48.238;11.160;2023-02-18T13:41:03;0.50;;;0.50;;
5704;SDS011;2877;48.238;11.160;2023-02-18T13:43:30;2.50;;;0.80;;
5704;SDS011;2877;48.238;11.160;2023-02-18T13:46:08;0.50;;;0.50;;
5704;SDS011;2877;48.238;11.160;2023-02-18T13:51:45;0.57;;;0.57;;
5704;SDS011;2877;48.238;11.160;2023-02-18T13:57:16;0.60;;;0.60;;
5704;SDS011;2877;48.238;11.160;2023-02-18T13:59:49;0.63;;;0.63;;
5704;SDS011;2877;48.238;11.160;2023-02-18T14:10:50;0.40;;;0.40;;
5704;SDS011;2877;48.238;11.160;2023-02-18T14:25:53;0.93;;;0.60;;
5704;SDS011;2877;48.238;11.160;2023-02-18T14:31:04;0.80;;;0.80;;
5704;SDS011;2877;48.238;11.160;2023-02-18T14:33:36;0.50;;;0.50;;
5704;SDS011;2877;48.238;11.160;2023-02-18T14:36:21;1.23;;;0.67;;
5704;SDS011;2877;48.238;11.160;2023-02-18T14:39:21;1.17;;;1.17;;
5704;SDS011;2877;48.238;11.160;2023-02-18T14:44:55;0.53;;;0.53;;
5704;SDS011;2877;48.238;11.160;2023-02-18T14:50:11;0.70;;;0.70;;
5704;SDS011;2877;48.238;11.160;2023-02-18T14:55:14;0.63;;;0.63;;
5704;SDS011;2877;48.238;11.160;2023-02-18T14:58:01;1.13;;;0.60;;
5704;SDS011;2877;48.238;11.160;2023-02-18T15:00:33;0.63;;;0.50;;
5704;SDS011;2877;48.238;11.160;2023-02-18T15:03:03;0.60;;;0.60;;
5704;SDS011;2877;48.238;11.160;2023-02-18T15:05:37;0.70;;;0.70;;
5704;SDS011;2877;48.238;11.160;2023-02-18T15:08:04;0.60;;;0.60;;
5704;SDS011;2877;48.238;11.160;2023-02-18T15:10:38;1.30;;;0.60;;
5704;SDS011;2877;48.238;11.160;2023-02-18T15:13:43;0.70;;;0.70;;
5704;SDS011;2877;48.238;11.160;2023-02-18T15:16:11;1.33;;;0.60;;
5704;SDS011;2877;48.238;11.160;2023-02-18T15:18:55;0.60;;;0.60;;
5704;SDS011;2877;48.238;11.160;2023-02-18T15:21:23;4.00;;;0.87;;
5704;SDS011;2877;48.238;11.160;2023-02-18T15:23:52;0.70;;;0.70;;
5704;SDS011;2877;48.238;11.160;2023-02-18T15:26:18;1.00;;;0.70;;
5704;SDS011;2877;48.238;11.160;2023-02-18T15:28:57;0.70;;;0.70;;
5704;SDS011;2877;48.238;11.160;2023-02-18T15:31:28;1.13;;;0.70;;
5704;SDS011;2877;48.238;11.160;2023-02-18T15:33:55;1.80;;;1.00;;
5704;SDS011;2877;48.238;11.160;2023-02-18T15:36:21;1.60;;;0.90;;
5704;SDS011;2877;48.238;11.160;2023-02-18T15:38:50;1.47;;;1.17;;
5704;SDS011;2877;48.238;11.160;2023-02-18T15:41:16;9.57;;;5.23;;
5704;SDS011;2877;48.238;11.160;2023-02-18T15:43:50;3.63;;;1.20;;
5704;SDS011;2877;48.238;11.160;2023-02-18T15:46:22;1.27;;;1.17;;
5704;SDS011;2877;48.238;11.160;2023-02-18T15:48:50;2.10;;;1.40;;
5704;SDS011;2877;48.238;11.160;2023-02-18T15:51:21;1.47;;;1.30;;
5704;SDS011;2877;48.238;11.160;2023-02-18T15:53:52;2.47;;;0.93;;
5704;SDS011;2877;48.238;11.160;2023-02-18T15:56:41;2.10;;;0.80;;
5704;SDS011;2877;48.238;11.160;2023-02-18T16:01:34;1.30;;;1.20;;
5704;SDS011;2877;48.238;11.160;2023-02-18T16:04:00;0.90;;;0.90;;
5704;SDS011;2877;48.238;11.160;2023-02-18T16:06:27;0.70;;;0.70;;
5704;SDS011;2877;48.238;11.160;2023-02-18T16:09:07;0.67;;;0.67;;
5704;SDS011;2877;48.238;11.160;2023-02-18T16:11:42;0.77;;;0.77;;
5704;SDS011;2877;48.238;11.160;2023-02-18T16:17:04;0.80;;;0.80;;
5704;SDS011;2877;48.238;11.160;2023-02-18T16:19:44;2.03;;;0.70;;
5704;SDS011;2877;48.238;11.160;2023-02-18T16:22:41;2.07;;;0.90;;
5704;SDS011;2877;48.238;11.160;2023-02-18T16:25:22;1.37;;;0.90;;
5704;SDS011;2877;48.238;11.160;2023-02-18T16:30:27;1.03;;;0.80;;
5704;SDS011;2877;48.238;11.160;2023-02-18T16:32:55;0.90;;;0.90;;
5704;SDS011;2877;48.238;11.160;2023-02-18T16:35:22;1.80;;;0.67;;
5704;SDS011;2877;48.238;11.160;2023-02-18T16:37:51;0.90;;;0.90;;
5704;SDS011;2877;48.238;11.160;2023-02-18T16:42:54;0.70;;;0.70;;
5704;SDS011;2877;48.238;11.160;2023-02-18T16:45:23;0.80;;;0.80;;
5704;SDS011;2877;48.238;11.160;2023-02-18T16:47:58;1.07;;;0.67;;
5704;SDS011;2877;48.238;11.160;2023-02-18T16:50:24;1.53;;;0.83;;
5704;SDS011;2877;48.238;11.160;2023-02-18T16:52:54;0.70;;;0.70;;
5704;SDS011;2877;48.238;11.160;2023-02-18T16:55:24;1.40;;;1.00;;
5704;SDS011;2877;48.238;11.160;2023-02-18T16:57:51;0.77;;;0.77;;
5704;SDS011;2877;48.238;11.160;2023-02-18T17:00:17;1.37;;;0.87;;
5704;SDS011;2877;48.238;11.160;2023-02-18T17:02:45;1.07;;;0.87;;
5704;SDS011;2877;48.238;11.160;2023-02-18T17:05:20;0.93;;;0.80;;
5704;SDS011;2877;48.238;11.160;2023-02-18T17:07:48;0.80;;;0.80;;
5704;SDS011;2877;48.238;11.160;2023-02-18T17:10:13;0.90;;;0.90;;
5704;SDS011;2877;48.238;11.160;2023-02-18T17:12:42;0.80;;;0.80;;
5704;SDS011;2877;48.238;11.160;2023-02-18T17:15:21;1.30;;;1.30;;
5704;SDS011;2877;48.238;11.160;2023-02-18T17:17:51;5.23;;;0.90;;
5704;SDS011;2877;48.238;11.160;2023-02-18T17:20:16;1.27;;;1.10;;
5704;SDS011;2877;48.238;11.160;2023-02-18T17:22:42;1.30;;;1.20;;
5704;SDS011;2877;48.238;11.160;2023-02-18T17:25:13;1.00;;;0.93;;
5704;SDS011;2877;48.238;11.160;2023-02-18T17:27:47;2.00;;;0.97;;
5704;SDS011;2877;48.238;11.160;2023-02-18T17:30:12;5.20;;;0.80;;
5704;SDS011;2877;48.238;11.160;2023-02-18T17:32:38;0.97;;;0.90;;
5704;SDS011;2877;48.238;11.160;2023-02-18T17:35:05;0.90;;;0.90;;
5704;SDS011;2877;48.238;11.160;2023-02-18T17:37:31;1.00;;;1.00;;
5704;SDS011;2877;48.238;11.160;2023-02-18T17:39:56;1.07;;;1.03;;
5704;SDS011;2877;48.238;11.160;2023-02-18T17:42:22;2.57;;;0.77;;
5704;SDS011;2877;48.238;11.160;2023-02-18T17:44:47;1.13;;;0.97;;
5704;SDS011;2877;48.238;11.160;2023-02-18T17:47:13;1.27;;;0.90;;
5704;SDS011;2877;48.238;11.160;2023-02-18T17:49:39;0.87;;;0.80;;
5704;SDS011;2877;48.238;11.160;2023-02-18T17:52:05;0.93;;;0.93;;
5704;SDS011;2877;48.238;11.160;2023-02-18T17:54:30;1.00;;;1.00;;
5704;SDS011;2877;48.238;11.160;2023-02-18T17:56:56;0.90;;;0.90;;
5704;SDS011;2877;48.238;11.160;2023-02-18T17:59:21;0.90;;;0.90;;
5704;SDS011;2877;48.238;11.160;2023-02-18T18:01:47;0.80;;;0.80;;
5704;SDS011;2877;48.238;11.160;2023-02-18T18:04:13;0.90;;;0.90;;
5704;SDS011;2877;48.238;11.160;2023-02-18T18:06:40;0.90;;;0.90;;
5704;SDS011;2877;48.238;11.160;2023-02-18T18:09:06;1.20;;;1.10;;
5704;SDS011;2877;48.238;11.160;2023-02-18T18:11:32;1.20;;;1.00;;